Desbarats, Canada
Current Conditions -  °F | °C
As of 10:15 PM on Wednesday 22 Oct 2014 (Local Time) from KDRM Reporting Station
Clear Clear  
Wind Chill: 31°   Ceiling: Unl
Heat Index: 31°   Visibility: 10mi
Dew Point: 31°   Wind: 0mph
Humidity: 100%   Direction: NA
Pressure: 30.3"   Gusts: NA
Location:  46.33°N, 83.93°W
Report Text: KDRM 230215Z AUTO 00000KT 10SM CLR M01/M01 A3030 RMK AO2 T10061006
Loading
Personal Weather Stations






























Interactive Weather Map
Tropical Storm Tracking
New forecast layout! Learn more

10-Day Weather Forecast

Advertisements
Track Severe Weather on mobile